ADVERTISEMENT

iOS app on App Store Android app on Google Play

2016 \ Turkey Trot Los Angeles - November 24, 2016

Notes Pages Download Filter By
  1 2 3 4 5 6 7 8 9 10 11 12 13 14 15 [16] 17 18 19 20 21 22 23 24 25 26 27 28 29 30




Keyword Exact  
Division

Bib Division Last Name First Name Division Place Total Time Overall City State
1781 40-44 Female Verduzco Ghia 74 00:38:30 1501 Whittier CA
4229 30-34 Female Yilpet Joy 153 00:38:30 1502 Downey CA
1811 14-15 Female King Cayden 22 00:38:30 1503 Crofton MD
1294 12-13 Male Purcell Owen 38 00:38:30 1504 Santa Monica CA
1292 40-44 Female Purcell Andrea 75 00:38:31 1505 Santa Monica CA
3907 30-34 Female Beltran Nathalie 154 00:38:31 1506 North Hollywood CA
1140 50-54 Female Silva Dora 29 00:38:31 1507 Van Nuys CA
3905 50-54 Female Borrero Lilia 30 00:38:31 1508 Downey CA
4366 45-49 Male Harrington Michael 48 00:38:33 1509 Pdr CA
1699 30-34 Male Pelletier ? Trevor 117 00:38:35 1510 Hermosa Beach CA
561 30-34 Female Samms Renee 155 00:38:35 1511 Santa Monica CA
2547 25-29 Female Espinoza Miriam 158 00:38:35 1512 Los Angeles CA
2835 1-9 Female Scott-yager Zoe 26 00:38:35 1513 Los Angeles CA
2834 40-44 Female Scott-wyard Phoebe 76 00:38:35 1514 Los Angeles CA
1810 40-44 Female Brown Denise 77 00:38:35 1515 Crofton MD
2879 35-39 Female Yager Rosalie 97 00:38:35 1516 Los Angelws CA
1809 45-49 Male Orange Frankie 49 00:38:35 1517 Studio City CA
2546 20-24 Female Espinoza Paola 71 00:38:36 1518 Los Angeles CA
1897 30-34 Male Rejano Cantero David 118 00:38:36 1519 South Pasadena CA
1896 30-34 Female Montes Mateo Cristina 156 00:38:36 1520 South Pasadena CA
1380 14-15 Male Gutierrez Anthony 28 00:38:36 1521 Norwalk CA
1697 60-64 Female Garcia-garza Gloria 7 00:38:36 1522 Victorville CA
1698 30-34 Female Garcia-garza Tashina 157 00:38:36 1523 Hermosa Beach CA
2265 25-29 Male Lim Vincent 87 00:38:37 1524 Rolling Hills Estate CA
152 45-49 Female Koch Edith 61 00:38:39 1525 Huntington Park CA
3581 12-13 Male Borboa Dante 39 00:38:40 1526 Sahuarita AZ
3582 40-44 Male Borboa Dan 65 00:38:41 1527 Sahuarita AZ
2913 60-64 Male Thompson Steven 18 00:38:42 1528 Torrance CA
1843 16-19 Female Ramirez Patricia 29 00:38:44 1529 Downey CA
3932 14-15 Male Hernandez Cosme 29 00:38:47 1530 Whittier CA
4030 35-39 Male Mercado Mark 93 00:38:48 1531 Los Angeles CA
4029 25-29 Male Quiblat Sefranp Cris 88 00:38:48 1532 Pacoima CA
3931 35-39 Female Lopez Lisa 98 00:38:48 1533 Whittier CA
634 30-34 Female Talavera Elizabeth 158 00:38:50 1534 Pasadena CA
2922 25-29 Female Nelson Taylor 159 00:38:50 1535 Pasadena CA
994 40-44 Male Juarez Rene 66 00:38:50 1536 Compton CA
1449 35-39 Male Aguilar Rafael 94 00:38:51 1537 Pasadena CA
1447 30-34 Female Villagran Candice 159 00:38:52 1538 Rowland Hts CA
3808 16-19 Male Esserman Jake 42 00:38:52 1539 Tarzana CA
4004 35-39 Male Alexandru Jane 95 00:38:53 1540 Valley Village CA
1744 30-34 Male Gillman Maxx 119 00:38:53 1541 Los Angeles CA
2594 12-13 Male Othman Samir 40 00:38:54 1542 Perris CA
4005 1-9 Male Bereny Julian 39 00:38:54 1543 Valley Village CA
2423 45-49 Male Johnson John 50 00:38:55 1544 Atlanta GA
3460 1-9 Female Smith Makayla 27 00:38:56 1545 Los Angeles CA
3459 40-44 Female Smith Zee 78 00:38:56 1546 Los Angeles CA
2757 40-44 Female Hickman Heather 79 00:38:56 1547 Lemont IL
907 30-34 Male Renteria Eduardo 120 00:38:57 1548 Los Angeles CA
767 25-29 Female Beckley Krista 160 00:39:00 1549 North Hills CA
3522 70-99 Male Hyman Allan 5 00:39:00 1550 Sands Point, NY
1849 30-34 Female Lam Marion 160 00:39:01 1551 Alhambra CA
1745 30-34 Female Gillman Piper 161 00:39:01 1552 Los Angeles CA
1173 14-15 Female Mendoza Nataly 23 00:39:02 1553 Hawthorne CA
1400 25-29 Male Sandoval Adrian 89 00:39:02 1554 Hawthorne CA
425 12-13 Male Romero Rey 41 00:39:04 1555 Anaheim CA
612 40-44 Male Fowler Shawn 67 00:39:05 1556 Keller TX
2938 10-11 Male Sosa Alejandro 23 00:39:05 1557 Norwalk CA
251 65-69 Female Hernandez Leticia 6 00:39:05 1558 Lawndale CA
4006 35-39 Female Bereny Melania 99 00:39:05 1559 Valley Village CA
4218 25-29 Female Real Stephanie 161 00:39:08 1560 Downey CA
1417 20-24 Female Meng Emma 72 00:39:08 1561 Monterey Park CA
1423 25-29 Male Lee Ernest 90 00:39:09 1562 Monterey Park CA
2521 25-29 Male Batisla Erick 91 00:39:10 1563 Arcadia CA
2520 25-29 Female Machida Aimee 162 00:39:10 1564 Arcadia CA
3504 12-13 Female Solis Monica 19 00:39:11 1565 Menifee CA
905 1-9 Male Fouse-spitzig Grayson 40 00:39:11 1566 Los Angeles CA
906 45-49 Female Fouse Alisa 62 00:39:12 1567 Los Angeles CA
4233 45-49 Female Acosta Angelina 63 00:39:14 1568 Los Angeles CA
338 20-24 Female Flores Erika 73 00:39:18 1569 San Pedro CA
2380 10-11 Male Tierney Jaxson 24 00:39:19 1570 Sierra Madre CA
2597 10-11 Male Solis Jacob 25 00:39:20 1571 Oxnard CA
2593 12-13 Male Othman Omar 42 00:39:20 1572 Perris CA
2596 45-49 Male Solis Arnold 51 00:39:21 1573 Oxnard CA
1267 65-69 Female Chapin Donna 7 00:39:23 1574 Los Angeles CA
3274 25-29 Female Pompa Nicole 163 00:39:23 1575 Downey CA
3004 1-9 Male Au Jayden 41 00:39:23 1576 Temple City CA
1265 30-34 Male Maizel Andrew 121 00:39:23 1577 Los Angeles CA
1571 20-24 Male Moore Benjamin 54 00:39:23 1578 Englewood CO
1573 55-59 Male Moore Thomas 28 00:39:23 1579 Englewood CO
3284 30-34 Female Barth Ashly 162 00:39:23 1580 Camarillo CA
721 20-24 Female Chen Stephanie 74 00:39:23 1581 Los Angeles CA
3005 35-39 Male Au Mitchell 96 00:39:23 1582 Temple City CA
3831 30-34 Male Burghorn Jason 122 00:39:24 1583 Los Angeles CA
722 25-29 Male Reagan Ross 92 00:39:24 1584 Carmichael CA
2060 40-44 Female Mustard Michelle 80 00:39:24 1585 Los Angeles CA
2529 35-39 Female Aguirre Candice 100 00:39:25 1586 Lakewood CA
3102 14-15 Male Ramos Damian 30 00:39:25 1587 Los Angeles CA
4373 45-49 Female De Zoysa Dhulsini 64 00:39:25 1588 Washington DC
2428 10-11 Male Au Tristan 26 00:39:26 1589 Monterey Park CA
1563 45-49 Female Carrion-vega Esmeralda 65 00:39:26 1590 Monrovia CA
3561 12-13 Female Testa Vivian 20 00:39:27 1591 Porter Ranch CA
3934 30-34 Female Williamson Christine 163 00:39:27 1592 Los Angeles CA
2427 40-44 Male Au Nathan 68 00:39:28 1593 Monterey Park CA
2911 50-54 Female Salinas Jeanette 31 00:39:28 1594 Whittier CA
3596 20-24 Female Lee Michelle 75 00:39:28 1595 San Francisco CA
2571 14-15 Female Capen Malia 24 00:39:29 1596 Thousand Oaks CA
3830 25-29 Female Burghorn Heather 164 00:39:29 1597 Los Angeles CA
4361 25-29 Female Mai Theresa 165 00:39:29 1598 Panorama City CA
3576 20-24 Male Lee Mark 55 00:39:29 1599 Los Angeles CA
2570 10-11 Male Cruzat Tre 27 00:39:29 1600 Alameda CA
Notes Pages Download Filter By
  1 2 3 4 5 6 7 8 9 10 11 12 13 14 15




Keyword Exact  
Division

Bib Division Last Name First Name Division Place Chip Overall City State
Not Found